Всё
Manihiki Island Airport (Manihiki (Humphrey Island)) MHX Погода
|
Manihiki (Humphrey Island) (MHX / NCMH)
Безоблачно
Легкий ветер |
|
31 °C |
There is no TAF data available at MHX or any nearby airports.
Недавняя история METAR для MHX
| Date | Time (-10) | Flight Rules | Wind Dir. | Speed | Type | Height AGL (ft) | Visibility | Temp (°C) | Temp (°F) | Dew Point (°C) | Dew Point (°F) | Rel. Humid. | Pressure | Density Altitude | Remarks |
|---|---|---|---|---|---|---|---|---|---|---|---|---|---|---|---|
| 02-май | 17:00 | n/a | 130° | 5 kt | Missing | 31° | 87° | 25° | 77° | 71% | 1005 mb | 2,182 ft | |||
| 02-май | 16:00 | n/a | 90° | 4 kt | Missing | 31° | 87° | 25° | 77° | 71% | 1005 mb | 2,182 ft | |||
| 02-май | 15:00 | n/a | 110° | 5 kt | Missing | 31° | 87° | 25° | 77° | 71% | 1006 mb | 2,153 ft | |||
| 02-май | 14:00 | n/a | 120° | 6 kt | Missing | 31° | 87° | 25° | 77° | 71% | 1007 mb | 2,123 ft | |||
| 02-май | 13:00 | n/a | 130° | 5 kt | Missing | 31° | 87° | 25° | 77° | 71% | 1008 mb | 2,094 ft | |||
| 02-май | 12:00 | n/a | 110° | 5 kt | Missing | 31° | 87° | 25° | 77° | 71% | 1008 mb | 2,094 ft | |||
| 02-май | 11:00 | n/a | 130° | 5 kt | Missing | 31° | 87° | 25° | 77° | 71% | 1009 mb | 2,064 ft | |||
| 02-май | 10:00 | n/a | 200° | 6 kt | Missing | 31° | 87° | 25° | 77° | 71% | 1009 mb | 2,064 ft | |||
| 02-май | 09:00 | n/a | 90° | 5 kt | Missing | 30° | 86° | 25° | 77° | 75% | 1009 mb | 1,944 ft | |||
| 02-май | 08:00 | n/a | 90° | 4 kt | Missing | 29° | 84° | 25° | 77° | 79% | 1008 mb | 1,854 ft | |||
| 02-май | 07:00 | n/a | 120° | 4 kt | Missing | 28° | 82° | 25° | 77° | 84% | 1007 mb | 1,763 ft | |||
| 02-май | 06:00 | n/a | 150° | 4 kt | Missing | 28° | 82° | 25° | 77° | 84% | 1007 mb | 1,763 ft | |||
| 02-май | 05:00 | n/a | 160° | 3 kt | Missing | 28° | 82° | 25° | 77° | 84% | 1007 mb | 1,763 ft | |||
| 02-май | 04:00 | n/a | 60° | 3 kt | Missing | 27° | 80° | 25° | 77° | 89% | 1007 mb | 1,643 ft | |||
| 02-май | 03:00 | n/a | 60° | 3 kt | Missing | 28° | 82° | 25° | 77° | 84% | 1007 mb | 1,763 ft | |||
| 02-май | 02:00 | n/a | 110° | 3 kt | Missing | 28° | 82° | 27° | 80° | 94% | 1008 mb | 1,734 ft | |||
| 02-май | 01:00 | n/a | 70° | 3 kt | Missing | 29° | 84° | 25° | 77° | 79% | 1008 mb | 1,854 ft | |||
| 02-май | 00:00 | n/a | 200° | 3 kt | Missing | 29° | 84° | 25° | 77° | 79% | 1008 mb | 1,854 ft | |||
| 01-май | 23:00 | n/a | 130° | 3 kt | Missing | 29° | 84° | 25° | 77° | 79% | 1009 mb | 1,824 ft | |||
| 01-май | 22:00 | n/a | 130° | 3 kt | Missing | 29° | 84° | 25° | 77° | 79% | 1009 mb | 1,824 ft | |||
| 01-май | 21:00 | n/a | 230° | 3 kt | Missing | 29° | 84° | 25° | 77° | 79% | 1008 mb | 1,854 ft | |||
| 01-май | 20:00 | n/a | 140° | 2 kt | Missing | 29° | 84° | 25° | 77° | 79% | 1008 mb | 1,854 ft | |||
| 01-май | 19:00 | n/a | 90° | 3 kt | Missing | 29° | 84° | 25° | 77° | 79% | 1007 mb | 1,883 ft | |||
| 01-май | 18:00 | n/a | 110° | 3 kt | Missing | 29° | 84° | 25° | 77° | 79% | 1007 mb | 1,883 ft |
Вход
| Ваш браузер не поддерживается.. обновите веб-браузер |
